createdAt,value
2023-02-15T00:42:26.184Z,31.00
2023-02-15T00:44:52.764Z,30.92
2023-02-15T00:47:20.821Z,30.58
2023-02-15T00:49:47.398Z,30.77
2023-02-15T00:52:13.961Z,31.00
2023-02-15T00:54:40.573Z,30.95
2023-02-15T00:57:07.239Z,30.58
2023-02-15T00:59:33.797Z,29.52
2023-02-15T01:02:00.277Z,29.08
2023-02-15T01:04:26.886Z,29.52
2023-02-15T01:06:53.439Z,31.05
2023-02-15T01:09:19.920Z,30.08
2023-02-15T01:11:46.480Z,28.77
2023-02-15T01:14:14.105Z,28.70
2023-02-15T01:16:40.887Z,30.05
2023-02-15T01:19:07.511Z,29.80
2023-02-15T01:21:35.437Z,28.70
2023-02-15T01:24:03.034Z,29.65
2023-02-15T01:26:29.610Z,29.48
2023-02-15T01:28:57.032Z,28.90
2023-02-15T01:31:23.655Z,28.83
2023-02-15T01:33:50.700Z,29.00
2023-02-15T01:36:18.339Z,29.10
2023-02-15T01:38:45.196Z,29.20
2023-02-15T01:41:20.819Z,28.83
2023-02-15T01:43:50.164Z,28.48
2023-02-15T01:46:21.390Z,28.67
2023-02-15T01:48:54.762Z,27.20
2023-02-15T01:51:28.323Z,27.58
2023-02-15T01:54:09.291Z,29.13
2023-02-15T01:56:38.432Z,28.00
2023-02-15T01:59:09.965Z,28.23
2023-02-15T02:01:36.747Z,26.85
2023-02-15T02:04:06.133Z,27.52
2023-02-15T02:06:34.376Z,27.60
2023-02-15T02:09:02.132Z,28.52
2023-02-15T02:11:29.004Z,27.58
2023-02-15T02:13:57.017Z,27.67
2023-02-15T02:16:43.884Z,27.33
2023-02-15T02:19:46.201Z,27.77
2023-02-15T02:22:20.053Z,27.40
2023-02-15T02:25:28.047Z,27.95
2023-02-15T02:28:19.096Z,25.92
2023-02-15T02:31:03.746Z,27.13
2023-02-15T02:34:00.810Z,26.60
2023-02-15T02:36:37.008Z,25.85
2023-02-15T02:39:28.199Z,27.58
2023-02-15T02:42:14.963Z,26.48
2023-02-15T02:44:52.826Z,26.95
2023-02-15T02:47:28.248Z,26.75
2023-02-15T02:50:02.294Z,27.83
2023-02-15T02:52:39.405Z,26.23
2023-02-15T02:55:17.642Z,27.20
2023-02-15T02:57:55.340Z,27.42
2023-02-15T03:00:26.505Z,26.75
2023-02-15T03:03:05.755Z,11.30
2023-02-15T03:05:35.436Z,26.70
2023-02-15T03:08:07.050Z,26.52
2023-02-15T03:10:37.416Z,26.60
2023-02-15T03:13:06.003Z,26.48
2023-02-15T03:15:56.526Z,26.27
2023-02-15T03:18:29.130Z,25.88
2023-02-15T03:20:56.576Z,25.02
2023-02-15T03:23:25.699Z,25.73
2023-02-15T03:25:59.593Z,25.13
2023-02-15T03:28:52.634Z,25.08
2023-02-15T03:31:22.429Z,26.30
2023-02-15T03:33:56.453Z,25.88
2023-02-15T03:36:37.648Z,25.63
2023-02-15T03:39:23.176Z,11.50
2023-02-15T03:41:59.025Z,25.33
2023-02-15T03:44:31.767Z,25.67
2023-02-15T03:47:20.276Z,25.38
2023-02-15T03:49:57.602Z,25.75
2023-02-15T03:52:27.192Z,24.92
2023-02-15T03:54:54.297Z,25.42
2023-02-15T03:57:42.746Z,23.63
2023-02-15T04:00:40.385Z,24.85
2023-02-15T04:03:15.826Z,24.00
2023-02-15T04:05:44.600Z,24.15
2023-02-15T04:08:11.774Z,23.67
2023-02-15T04:10:53.478Z,24.33
2023-02-15T04:13:24.726Z,24.00
2023-02-15T04:16:04.227Z,23.50
2023-02-15T04:18:58.102Z,23.83
2023-02-15T04:21:45.089Z,22.88
2023-02-15T04:24:30.252Z,24.45
2023-02-15T04:26:57.096Z,23.75
2023-02-15T04:29:25.407Z,23.60
2023-02-15T04:31:53.682Z,23.75
2023-02-15T04:34:20.498Z,23.70
2023-02-15T04:36:47.161Z,24.23
2023-02-15T04:39:15.344Z,24.38
2023-02-15T04:41:41.917Z,24.10
2023-02-15T04:44:08.636Z,22.85
2023-02-15T04:46:35.197Z,10.10
2023-02-15T04:49:01.752Z,23.52
2023-02-15T04:51:28.384Z,24.10
2023-02-15T04:53:54.951Z,23.02
2023-02-15T04:56:22.060Z,24.13
2023-02-15T04:58:49.054Z,23.40
2023-02-15T05:01:16.111Z,24.08
2023-02-15T05:03:42.729Z,23.70
2023-02-15T05:06:09.286Z,23.75
2023-02-15T05:08:35.821Z,24.05
2023-02-15T05:11:02.360Z,22.67
2023-02-15T05:13:28.901Z,23.00
2023-02-15T05:15:55.527Z,9.60
2023-02-15T05:18:22.664Z,23.77
2023-02-15T05:20:49.855Z,23.58
2023-02-15T05:23:16.798Z,23.38
2023-02-15T05:26:07.044Z,24.08
2023-02-15T05:28:34.001Z,10.10
2023-02-15T05:31:03.654Z,10.27
2023-02-15T05:33:30.451Z,23.13
2023-02-15T05:35:57.075Z,24.38
2023-02-15T05:38:23.657Z,23.50
2023-02-15T05:40:52.099Z,23.63
2023-02-15T05:43:19.127Z,24.35
2023-02-15T05:45:54.785Z,23.67
2023-02-15T05:48:23.464Z,23.13
2023-02-15T05:51:03.818Z,23.08
2023-02-15T05:53:32.445Z,24.88
2023-02-15T05:56:03.391Z,24.27
2023-02-15T05:58:33.288Z,9.20
2023-02-15T06:01:00.212Z,24.60
2023-02-15T06:03:29.212Z,24.13
2023-02-15T06:05:55.808Z,24.52
2023-02-15T06:08:22.365Z,24.75
2023-02-15T06:10:48.896Z,24.67
2023-02-15T06:13:15.482Z,22.63
2023-02-15T06:15:42.028Z,24.83
2023-02-15T06:18:08.513Z,23.98
2023-02-15T06:20:35.016Z,11.25
2023-02-15T06:23:01.543Z,23.88
2023-02-15T06:25:28.185Z,23.95
2023-02-15T06:27:54.699Z,23.05
2023-02-15T06:30:21.726Z,24.58
2023-02-15T06:32:48.309Z,24.48
2023-02-15T06:35:16.136Z,24.60
2023-02-15T06:37:45.809Z,23.95
2023-02-15T06:40:12.533Z,23.48
2023-02-15T06:42:39.046Z,24.95
2023-02-15T06:45:07.680Z,25.40
2023-02-15T06:47:35.325Z,26.58
2023-02-15T06:50:01.934Z,11.80
2023-02-15T06:52:29.256Z,11.27
2023-02-15T06:54:55.802Z,12.57
2023-02-15T06:57:22.374Z,26.08
2023-02-15T06:59:49.001Z,25.35
2023-02-15T07:02:16.068Z,27.33
2023-02-15T07:04:42.667Z,26.25
2023-02-15T07:07:11.331Z,26.65
2023-02-15T07:09:38.130Z,27.50
2023-02-15T07:12:23.494Z,26.23
2023-02-15T07:14:50.034Z,26.55
2023-02-15T07:17:35.066Z,11.43
2023-02-15T07:20:07.003Z,11.27
2023-02-15T07:22:34.964Z,28.10
2023-02-15T07:25:01.643Z,27.02
2023-02-15T07:27:28.354Z,27.90
2023-02-15T07:29:54.927Z,29.20
2023-02-15T07:32:21.595Z,11.80
2023-02-15T07:34:48.074Z,26.80
2023-02-15T07:37:14.667Z,27.70
2023-02-15T07:39:41.206Z,28.15
2023-02-15T07:42:07.762Z,27.60
2023-02-15T07:44:34.384Z,27.92
2023-02-15T07:47:00.871Z,28.80
2023-02-15T07:49:27.564Z,29.90
2023-02-15T07:51:54.145Z,11.40
2023-02-15T07:54:20.732Z,12.38
2023-02-15T07:56:47.300Z,29.00
2023-02-15T07:59:14.081Z,28.67
2023-02-15T08:01:40.685Z,30.80
2023-02-15T08:04:08.532Z,29.77
2023-02-15T08:06:36.660Z,30.52
2023-02-15T08:09:08.111Z,30.60
2023-02-15T08:11:43.692Z,30.65
2023-02-15T08:14:12.324Z,30.25
2023-02-15T08:16:53.553Z,30.88
2023-02-15T08:19:24.574Z,30.03
2023-02-15T08:21:58.024Z,12.27
2023-02-15T08:24:26.693Z,12.30
2023-02-15T08:26:53.972Z,30.33
2023-02-15T08:29:24.408Z,31.75
2023-02-15T08:31:54.351Z,31.83
2023-02-15T08:34:22.224Z,31.30
2023-02-15T08:36:48.779Z,31.52
2023-02-15T08:39:16.066Z,32.63
2023-02-15T08:41:44.911Z,31.83
2023-02-15T08:44:12.246Z,32.58
2023-02-15T08:46:42.518Z,32.78
2023-02-15T08:49:15.974Z,32.33
2023-02-15T08:51:42.921Z,33.58
2023-02-15T08:54:13.615Z,32.63
2023-02-15T08:56:42.459Z,31.65
2023-02-15T08:59:15.042Z,13.00
2023-02-15T09:01:41.671Z,32.55
2023-02-15T09:04:09.743Z,32.78
2023-02-15T09:06:40.272Z,34.17
2023-02-15T09:09:08.331Z,33.85
2023-02-15T09:11:37.762Z,34.28
2023-02-15T09:14:09.028Z,33.42
2023-02-15T09:16:37.680Z,34.72
2023-02-15T09:19:08.751Z,34.22
2023-02-15T09:21:39.029Z,35.90
2023-02-15T09:24:09.050Z,35.65
2023-02-15T09:26:38.362Z,36.60
2023-02-15T09:29:05.021Z,35.08
2023-02-15T09:31:34.689Z,36.63
2023-02-15T09:34:02.404Z,35.78
2023-02-15T09:36:37.865Z,14.38
2023-02-15T09:39:12.031Z,34.45
2023-02-15T09:41:54.509Z,37.03
2023-02-15T09:44:31.540Z,36.92
2023-02-15T09:47:11.811Z,37.67
2023-02-15T09:49:58.532Z,36.63
2023-02-15T09:52:32.197Z,38.55
2023-02-15T09:55:32.439Z,37.40
2023-02-15T09:58:08.675Z,37.38
2023-02-15T10:01:03.423Z,38.00
2023-02-15T10:04:06.230Z,38.58
2023-02-15T10:06:47.182Z,37.50
2023-02-15T10:09:28.756Z,36.38
2023-02-15T10:12:10.419Z,37.13
2023-02-15T10:15:05.620Z,36.47
2023-02-15T10:17:50.801Z,35.85
2023-02-15T10:20:29.000Z,35.35
2023-02-15T10:23:29.758Z,34.50
2023-02-15T10:26:15.061Z,35.42
2023-02-15T10:29:08.737Z,34.90
2023-02-15T10:32:07.910Z,34.45
2023-02-15T10:34:44.221Z,34.28
2023-02-15T10:37:29.535Z,35.22
2023-02-15T10:40:08.193Z,34.30
2023-02-15T10:42:59.565Z,32.95
2023-02-15T10:46:08.724Z,34.77
2023-02-15T10:48:53.567Z,34.53
2023-02-15T10:51:44.015Z,34.78
2023-02-15T10:54:19.056Z,33.45
2023-02-15T10:57:14.980Z,32.58
2023-02-15T11:00:05.662Z,32.58
2023-02-15T11:02:56.460Z,32.65
2023-02-15T11:05:49.965Z,33.65
2023-02-15T11:08:17.398Z,32.67
2023-02-15T11:10:54.824Z,30.20
2023-02-15T11:13:25.583Z,30.60
2023-02-15T11:15:57.300Z,31.63
2023-02-15T11:18:32.113Z,29.63
2023-02-15T11:21:12.387Z,30.75
2023-02-15T11:23:45.600Z,29.48
2023-02-15T11:26:34.066Z,30.23
2023-02-15T11:29:19.418Z,29.77
2023-02-15T11:31:50.225Z,30.63
2023-02-15T11:34:35.326Z,30.83
2023-02-15T11:37:21.511Z,29.77
2023-02-15T11:39:52.516Z,30.98
2023-02-15T11:42:25.910Z,30.30
2023-02-15T11:45:32.365Z,30.35
2023-02-15T11:48:00.323Z,30.25
2023-02-15T11:50:30.186Z,29.95
2023-02-15T11:53:03.226Z,30.55
2023-02-15T11:55:30.813Z,29.17
2023-02-15T11:58:09.732Z,30.52
2023-02-15T12:00:53.205Z,29.50
2023-02-15T12:03:39.135Z,28.95
2023-02-15T12:06:12.747Z,29.30
2023-02-15T12:08:44.039Z,27.75
2023-02-15T12:11:16.322Z,29.48
2023-02-15T12:14:06.259Z,29.48
2023-02-15T12:16:49.640Z,28.63
2023-02-15T12:19:33.903Z,29.25
2023-02-15T12:22:03.424Z,28.48
2023-02-15T12:24:39.084Z,29.77
2023-02-15T12:27:15.756Z,28.33
2023-02-15T12:29:46.849Z,28.90
2023-02-15T12:32:23.632Z,30.13
2023-02-15T12:34:52.414Z,28.70
2023-02-15T12:37:23.937Z,29.55
2023-02-15T12:39:58.913Z,28.98
2023-02-15T12:42:28.195Z,30.70
2023-02-15T12:45:03.359Z,29.70
2023-02-15T12:47:32.278Z,30.13
2023-02-15T12:50:24.423Z,30.90
2023-02-15T12:52:52.423Z,28.98
2023-02-15T12:55:25.078Z,29.08
2023-02-15T12:58:16.998Z,28.75
2023-02-15T13:00:43.639Z,29.65
2023-02-15T13:03:19.081Z,29.70
2023-02-15T13:05:49.793Z,29.27
2023-02-15T13:08:50.656Z,29.58
2023-02-15T13:11:31.334Z,29.10
2023-02-15T13:14:16.788Z,29.67
2023-02-15T13:16:45.332Z,29.13
2023-02-15T13:19:17.842Z,29.75
2023-02-15T13:21:48.112Z,29.05
2023-02-15T13:24:30.530Z,29.10
2023-02-15T13:27:13.130Z,29.15
2023-02-15T13:29:43.886Z,29.27
2023-02-15T13:32:23.736Z,29.83
2023-02-15T13:34:50.442Z,28.85
2023-02-15T13:37:26.455Z,30.38
2023-02-15T13:40:07.857Z,28.52
2023-02-15T13:42:42.335Z,29.27
2023-02-15T13:45:31.614Z,29.75
2023-02-15T13:48:21.109Z,29.42
2023-02-15T13:50:53.471Z,30.67
2023-02-15T13:53:38.312Z,29.45
2023-02-15T13:56:36.918Z,29.05
2023-02-15T13:59:13.213Z,29.40
2023-02-15T14:02:19.791Z,29.90
2023-02-15T14:05:11.700Z,29.48
2023-02-15T14:07:50.209Z,30.90
2023-02-15T14:10:41.091Z,29.63
2023-02-15T14:13:29.036Z,29.02
2023-02-15T14:16:18.508Z,29.77
2023-02-15T14:19:11.468Z,29.33
2023-02-15T14:21:50.134Z,28.80
2023-02-15T14:24:47.255Z,29.38
2023-02-15T14:27:48.361Z,28.70
2023-02-15T14:30:21.523Z,28.48
2023-02-15T14:32:59.226Z,27.90
2023-02-15T14:35:29.147Z,28.95
2023-02-15T14:38:02.493Z,27.50
2023-02-15T14:41:01.449Z,28.30
2023-02-15T14:43:46.196Z,28.52
2023-02-15T14:46:47.006Z,27.90
2023-02-15T14:49:17.365Z,29.38
2023-02-15T14:51:43.984Z,27.45
2023-02-15T14:54:33.611Z,28.42
2023-02-15T14:57:03.083Z,28.77
2023-02-15T15:00:07.728Z,28.92
2023-02-15T15:02:40.249Z,29.50
2023-02-15T15:05:19.265Z,29.42
2023-02-15T15:07:53.398Z,28.25
2023-02-15T15:10:21.298Z,29.75
2023-02-15T15:12:53.463Z,29.52
2023-02-15T15:15:31.986Z,29.98
2023-02-15T15:18:04.602Z,29.77
2023-02-15T15:20:42.777Z,28.65
2023-02-15T15:23:45.467Z,30.35
2023-02-15T15:26:30.265Z,30.08
2023-02-15T15:28:59.848Z,30.38
2023-02-15T15:32:00.923Z,30.13
2023-02-15T15:34:44.115Z,30.30
2023-02-15T15:37:10.628Z,28.67
2023-02-15T15:39:55.261Z,30.60
2023-02-15T15:42:21.729Z,30.20
2023-02-15T15:45:15.440Z,29.52
2023-02-15T15:48:09.572Z,30.88
2023-02-15T15:50:41.298Z,30.10
2023-02-15T15:53:19.334Z,30.15
2023-02-15T15:55:49.747Z,30.83
2023-02-15T15:58:19.770Z,30.55
2023-02-15T16:00:51.442Z,31.25
2023-02-15T16:03:26.791Z,31.55
2023-02-15T16:05:57.108Z,30.92
2023-02-15T16:08:39.381Z,30.73
2023-02-15T16:11:16.636Z,31.42
2023-02-15T16:13:44.261Z,31.65
2023-02-15T16:16:14.237Z,30.83
2023-02-15T16:18:43.244Z,31.20
2023-02-15T16:21:19.436Z,31.27
2023-02-15T16:23:52.006Z,30.13
2023-02-15T16:26:44.423Z,31.92
2023-02-15T16:29:19.857Z,33.17
2023-02-15T16:32:27.921Z,33.90
2023-02-15T16:35:02.910Z,32.03
2023-02-15T16:37:34.301Z,30.98
2023-02-15T16:40:01.937Z,32.13
2023-02-15T16:42:28.577Z,30.88
2023-02-15T16:45:08.645Z,31.20
2023-02-15T16:47:42.230Z,30.65
2023-02-15T16:50:19.594Z,31.27
2023-02-15T16:52:46.281Z,30.48
2023-02-15T16:55:23.032Z,31.13
2023-02-15T16:57:50.587Z,31.65
2023-02-15T17:00:24.142Z,31.85
2023-02-15T17:02:58.804Z,30.77
2023-02-15T17:05:34.469Z,31.55
2023-02-15T17:08:06.673Z,31.33
2023-02-15T17:10:42.708Z,31.25
2023-02-15T17:13:14.591Z,30.98
2023-02-15T17:18:19.578Z,30.48
2023-02-15T17:20:48.559Z,32.40
2023-02-15T17:23:36.815Z,31.25
2023-02-15T17:26:16.402Z,31.08
2023-02-15T17:28:53.542Z,31.90
2023-02-15T17:31:21.732Z,32.25
2023-02-15T17:33:48.911Z,32.70
2023-02-15T17:36:20.287Z,31.27
2023-02-15T17:38:58.769Z,32.47
2023-02-15T17:41:26.927Z,34.17
2023-02-15T17:43:53.543Z,32.20
2023-02-15T17:46:23.544Z,33.67
2023-02-15T17:48:52.806Z,36.92
2023-02-15T17:51:20.551Z,32.95
2023-02-15T17:54:05.618Z,31.83
2023-02-15T17:56:33.308Z,30.70
2023-02-15T17:59:00.049Z,30.77
2023-02-15T18:01:45.334Z,31.73
2023-02-15T18:04:32.245Z,30.42
2023-02-15T18:07:18.343Z,30.77
2023-02-15T18:10:03.731Z,30.48
2023-02-15T18:12:37.748Z,31.88
2023-02-15T18:15:05.857Z,30.48
2023-02-15T18:17:43.138Z,31.63
2023-02-15T18:20:19.181Z,31.75
2023-02-15T18:22:49.126Z,32.08
2023-02-15T18:25:17.745Z,32.47
2023-02-15T18:27:44.342Z,31.48
2023-02-15T18:30:16.249Z,31.55
2023-02-15T18:32:43.373Z,31.52
2023-02-15T18:35:16.199Z,32.35
2023-02-15T18:37:43.081Z,31.60
2023-02-15T18:40:16.085Z,32.83
2023-02-15T18:42:47.086Z,31.98
2023-02-15T18:45:15.244Z,32.10
2023-02-15T18:47:41.754Z,34.45
2023-02-15T18:50:08.948Z,32.85
2023-02-15T18:52:37.922Z,33.05
2023-02-15T18:55:19.360Z,34.75
2023-02-15T18:57:47.291Z,33.85
2023-02-15T19:00:19.404Z,33.97
2023-02-15T19:02:46.078Z,33.78
2023-02-15T19:05:13.425Z,34.50
2023-02-15T19:07:40.666Z,33.88
2023-02-15T19:10:13.453Z,33.60
2023-02-15T19:12:40.041Z,36.00
2023-02-15T19:15:06.840Z,38.97
2023-02-15T19:17:33.395Z,38.33
2023-02-15T19:19:59.888Z,36.67
2023-02-15T19:22:30.066Z,35.03
2023-02-15T19:24:59.871Z,34.20
2023-02-15T19:27:29.925Z,32.70
2023-02-15T19:29:59.243Z,34.38
2023-02-15T19:32:26.147Z,33.90
2023-02-15T19:34:52.687Z,33.60
2023-02-15T19:37:42.240Z,32.33
2023-02-15T19:40:25.599Z,33.13
2023-02-15T19:42:52.302Z,33.33
2023-02-15T19:45:26.067Z,32.88
2023-02-15T19:47:53.896Z,34.65
2023-02-15T19:50:24.084Z,34.75
2023-02-15T19:52:51.086Z,35.30
2023-02-15T19:55:37.965Z,35.35
2023-02-15T19:58:12.057Z,35.83
2023-02-15T20:00:38.603Z,34.40
2023-02-15T20:03:05.281Z,34.17
2023-02-15T20:05:34.831Z,35.05
2023-02-15T20:08:03.916Z,36.92
2023-02-15T20:10:31.717Z,34.80
2023-02-15T20:12:58.565Z,35.00
2023-02-15T20:15:34.462Z,34.67
2023-02-15T20:18:06.783Z,35.60
2023-02-15T20:20:51.672Z,34.35
2023-02-15T20:23:18.391Z,34.05
2023-02-15T20:25:45.273Z,33.80
2023-02-15T20:28:23.126Z,35.28
2023-02-15T20:30:50.246Z,34.40
2023-02-15T20:33:18.138Z,36.03
2023-02-15T20:35:45.913Z,35.70
2023-02-15T20:38:32.886Z,37.03
2023-02-15T20:41:19.566Z,37.22
2023-02-15T20:43:46.187Z,37.47
2023-02-15T20:46:12.722Z,36.58
2023-02-15T20:48:39.298Z,36.40
2023-02-15T20:51:10.312Z,36.15
2023-02-15T20:53:36.868Z,35.77
2023-02-15T20:56:03.710Z,36.20
2023-02-15T20:58:30.828Z,36.25
2023-02-15T21:00:58.913Z,35.50
2023-02-15T21:03:30.814Z,35.83
2023-02-15T21:05:58.273Z,36.85
2023-02-15T21:08:25.498Z,36.60
2023-02-15T21:10:53.225Z,37.13
2023-02-15T21:13:25.680Z,38.53
2023-02-15T21:15:53.928Z,37.72
2023-02-15T21:18:27.357Z,39.30
2023-02-15T21:20:56.753Z,39.53
2023-02-15T21:23:26.291Z,39.00
2023-02-15T21:25:55.858Z,38.53
2023-02-15T21:28:24.615Z,38.92
2023-02-15T21:30:54.133Z,38.78
2023-02-15T21:33:21.026Z,38.88
2023-02-15T21:35:50.846Z,39.58
2023-02-15T21:38:21.189Z,38.17
2023-02-15T21:40:49.094Z,39.60
2023-02-15T21:43:39.256Z,39.67
2023-02-15T21:46:32.943Z,39.50
2023-02-15T21:48:59.608Z,41.60
2023-02-15T21:51:45.072Z,40.10
2023-02-15T21:54:13.572Z,39.75
2023-02-15T21:56:41.963Z,38.85
2023-02-15T21:59:12.829Z,39.25
2023-02-15T22:01:42.149Z,40.10
2023-02-15T22:04:14.460Z,40.08
2023-02-15T22:06:41.397Z,41.25
2023-02-15T22:09:19.482Z,40.28
2023-02-15T22:11:46.669Z,39.53
2023-02-15T22:14:34.220Z,39.65
2023-02-15T22:17:00.788Z,40.17
2023-02-15T22:19:28.794Z,39.95
2023-02-15T22:21:55.400Z,39.45
2023-02-15T22:24:22.009Z,40.80
2023-02-15T22:26:48.537Z,39.72
2023-02-15T22:29:18.336Z,39.50
2023-02-15T22:31:45.226Z,39.72
2023-02-15T22:34:27.066Z,40.70
2023-02-15T22:36:54.165Z,39.65
2023-02-15T22:39:22.181Z,39.17
2023-02-15T22:41:49.107Z,39.65
2023-02-15T22:44:24.034Z,38.92
2023-02-15T22:46:51.447Z,38.83
2023-02-15T22:49:18.617Z,40.08
2023-02-15T22:51:49.596Z,38.85
2023-02-15T22:54:17.517Z,40.00
2023-02-15T22:56:51.531Z,38.33
2023-02-15T22:59:29.604Z,38.70
2023-02-15T23:01:57.291Z,38.45
2023-02-15T23:04:26.422Z,39.38
2023-02-15T23:06:55.190Z,39.85
2023-02-15T23:09:22.357Z,37.97
2023-02-15T23:11:50.810Z,38.42
2023-02-15T23:14:27.467Z,37.58
2023-02-15T23:16:54.436Z,40.08
2023-02-15T23:19:21.504Z,39.33
2023-02-15T23:21:48.245Z,38.70
2023-02-15T23:24:26.068Z,39.88
2023-02-15T23:26:53.341Z,38.35
2023-02-15T23:29:23.885Z,40.38
2023-02-15T23:31:53.192Z,39.55
2023-02-15T23:34:37.958Z,39.47
2023-02-15T23:37:04.452Z,39.80
2023-02-15T23:39:49.696Z,41.13
2023-02-15T23:42:20.173Z,41.20
2023-02-15T23:44:47.998Z,41.38
2023-02-15T23:47:47.199Z,39.72
2023-02-15T23:50:28.801Z,40.75
2023-02-15T23:52:56.369Z,40.53
2023-02-15T23:55:27.450Z,41.13
2023-02-15T23:57:54.091Z,40.07
